Time;durP1;ratioP1;P1;durP2;ratioP2;P2;SDS_P1;SDS_P2;PMS_P1;PMS_P2;Temp;Humidity;BMP_temperature;BMP_pressure;BME280_temperature;BME280_humidity;BME280_pressure;Samples;Min_cycle;Max_cycle;Signal;HPM_P1;HPM_P2
2023/02/20 00:01:15;;;;;;;15.45;12.95;;;;;;;9.03;100.00;100283.91;4975895;28;20518;-73
2023/02/20 00:03:40;;;;;;;15.00;11.65;;;;;;;9.08;100.00;100287.41;4985750;28;20748;-75
2023/02/20 00:06:06;;;;;;;22.98;12.20;;;;;;;8.88;100.00;100269.88;4987494;28;20062;-74
2023/02/20 00:08:31;;;;;;;17.13;11.75;;;;;;;9.29;100.00;100365.16;4986236;28;20026;-74
2023/02/20 00:10:57;;;;;;;17.65;12.57;;;;;;;9.46;100.00;100394.91;4984113;28;20475;-74
2023/02/20 00:13:22;;;;;;;15.65;10.70;;;;;;;9.37;100.00;100383.53;4985346;28;20094;-74
2023/02/20 00:15:48;;;;;;;30.73;14.93;;;;;;;9.48;100.00;100394.91;4989850;28;20046;-75
2023/02/20 00:18:13;;;;;;;19.15;11.93;;;;;;;9.29;100.00;100388.72;4982119;28;20069;-76
2023/02/20 00:20:39;;;;;;;14.70;11.40;;;;;;;8.71;100.00;100273.25;4989323;28;20030;-74
2023/02/20 00:23:04;;;;;;;18.48;11.90;;;;;;;9.36;100.00;100395.72;4988599;28;20038;-73
2023/02/20 00:25:30;;;;;;;17.13;12.05;;;;;;;9.37;100.00;100409.72;4983245;28;20453;-74
2023/02/20 00:27:55;;;;;;;14.55;11.40;;;;;;;9.23;100.00;100368.63;4977371;28;20129;-75
2023/02/20 00:30:23;;;;;;;15.43;11.05;;;;;;;9.21;100.00;100396.53;4975627;28;20061;-73
2023/02/20 00:32:50;;;;;;;15.05;11.25;;;;;;;9.21;100.00;100398.28;4982485;28;20435;-74
2023/02/20 00:35:16;;;;;;;15.95;10.63;;;;;;;9.12;100.00;100374.69;4983359;28;20682;-73
2023/02/20 00:37:42;;;;;;;17.13;11.50;;;;;;;9.03;100.00;100368.50;4978466;28;20051;-75
2023/02/20 00:40:08;;;;;;;15.35;10.88;;;;;;;8.43;100.00;100258.31;4983808;28;20046;-73
2023/02/20 00:42:34;;;;;;;12.85;9.60;;;;;;;8.44;100.00;100267.03;4984857;28;20049;-76
2023/02/20 00:45:00;;;;;;;14.13;10.15;;;;;;;8.97;100.00;100399.03;4984645;28;20549;-75
2023/02/20 00:47:25;;;;;;;14.02;9.50;;;;;;;9.11;100.00;100404.31;4982696;28;20527;-75
2023/02/20 00:49:50;;;;;;;13.75;9.32;;;;;;;8.91;100.00;100378.03;4979485;28;20659;-73
2023/02/20 00:52:16;;;;;;;13.45;8.63;;;;;;;8.93;100.00;100360.63;4983039;28;20089;-74
2023/02/20 00:54:41;;;;;;;13.65;8.93;;;;;;;8.42;100.00;100289.66;4981681;28;20399;-73
2023/02/20 00:57:07;;;;;;;13.85;10.52;;;;;;;8.78;100.00;100335.22;4983435;28;20130;-73
2023/02/20 00:59:32;;;;;;;10.10;8.45;;;;;;;9.08;100.00;100406.09;4980185;28;20514;-73
2023/02/20 01:01:58;;;;;;;15.48;9.95;;;;;;;8.37;100.00;100267.81;4977199;28;20053;-73
2023/02/20 01:04:23;;;;;;;13.48;8.68;;;;;;;9.09;100.00;100406.94;4979203;28;20050;-74
2023/02/20 01:06:49;;;;;;;9.60;7.15;;;;;;;9.03;100.00;100406.91;4988214;28;20875;-73
2023/02/20 01:09:14;;;;;;;12.18;8.68;;;;;;;8.28;100.00;100273.84;4996149;28;20056;-73
2023/02/20 01:11:42;;;;;;;11.85;8.65;;;;;;;8.96;100.00;100411.22;5000086;28;20121;-73
2023/02/20 01:14:07;;;;;;;11.00;8.73;;;;;;;8.58;100.00;100337.72;4979501;28;20065;-73
2023/02/20 01:16:33;;;;;;;12.35;8.45;;;;;;;8.38;100.00;100332.31;4983310;28;20051;-74
2023/02/20 01:18:58;;;;;;;11.40;7.78;;;;;;;8.20;100.00;100286.88;4991068;28;20045;-75
2023/02/20 01:21:23;;;;;;;13.70;8.75;;;;;;;8.31;100.00;100320.94;5001653;28;20045;-73
2023/02/20 01:23:49;;;;;;;12.75;8.52;;;;;;;8.99;100.00;100442.66;4998018;28;20714;-74
2023/02/20 01:26:15;;;;;;;12.57;8.02;;;;;;;7.85;100.00;100280.50;5002628;28;20141;-73
2023/02/20 01:28:44;;;;;;;21.80;9.32;;;;;;;8.35;100.00;100345.34;4999932;28;20125;-75
2023/02/20 01:31:09;;;;;;;11.20;7.85;;;;;;;8.60;100.00;100383.94;5000591;28;20046;-73
2023/02/20 01:33:35;;;;;;;14.45;8.38;;;;;;;8.97;100.00;100460.09;4998939;28;20104;-73
2023/02/20 01:36:00;;;;;;;13.35;8.73;;;;;;;8.97;100.00;100460.09;5003951;28;20092;-72
2023/02/20 01:38:26;;;;;;;14.38;8.90;;;;;;;9.07;100.00;100463.66;5002060;28;21004;-74
2023/02/20 01:40:52;;;;;;;11.32;8.35;;;;;;;8.79;100.00;100455.59;4985845;28;20062;-74
2023/02/20 01:43:17;;;;;;;15.18;9.82;;;;;;;7.72;100.00;100383.94;4980091;28;20031;-75
2023/02/20 01:45:43;;;;;;;13.63;8.35;;;;;;;7.60;100.00;100377.72;4985231;28;20141;-76
2023/02/20 01:48:24;;;;;;;13.00;9.60;;;;;;;8.12;100.00;100444.47;4985330;28;20085;-73
2023/02/20 01:50:57;;;;;;;16.98;11.30;;;;;;;7.83;100.00;100398.00;4984734;28;20085;-77
2023/02/20 01:53:24;;;;;;;16.42;11.10;;;;;;;8.22;100.00;100515.16;4983246;28;20065;-74
2023/02/20 01:56:01;;;;;;;18.08;12.05;;;;;;;7.35;100.00;100384.41;4981227;28;20360;-73
2023/02/20 01:58:35;;;;;;;16.92;11.50;;;;;;;8.06;100.00;100522.81;4987745;28;20081;-75
2023/02/20 02:01:03;;;;;;;14.40;10.50;;;;;;;8.04;100.00;100491.44;4983003;28;20574;-75
2023/02/20 02:03:34;;;;;;;14.10;10.20;;;;;;;8.34;100.00;100529.25;4985339;28;20038;-75
2023/02/20 02:06:06;;;;;;;11.70;7.80;;;;;;;7.40;100.00;100531.53;4988548;28;20056;-73
2023/02/20 02:08:33;;;;;;;11.40;7.05;;;;;;;7.11;100.00;100463.22;4989258;28;20120;-74
2023/02/20 02:11:01;;;;;;;10.38;4.65;;;;;;;7.70;100.00;100560.66;4997695;28;20510;-73
2023/02/20 02:13:27;;;;;;;10.88;4.28;;;;;;;6.68;100.00;100396.50;5005749;28;20514;-74
2023/02/20 02:16:20;;;;;;;8.73;2.83;;;;;;;6.65;100.00;100410.38;5001453;28;20949;-76
2023/02/20 02:18:57;;;;;;;6.83;2.63;;;;;;;7.43;100.00;100559.41;4998308;28;20839;-74
2023/02/20 02:21:23;;;;;;;4.20;2.20;;;;;;;7.39;100.00;100553.25;5006747;28;20068;-75
2023/02/20 02:24:40;;;;;;;3.55;2.28;;;;;;;6.93;100.00;100522.94;5002796;28;20026;-75
2023/02/20 02:28:01;;;;;;;4.00;1.52;;;;;;;7.15;100.00;100586.78;5007336;28;20061;-75
2023/02/20 02:30:51;;;;;;;3.05;1.98;;;;;;;6.98;100.00;100596.94;4923775;28;20062;-73
2023/02/20 02:33:28;;;;;;;3.75;1.42;;;;;;;6.97;100.00;100605.63;4988382;28;20442;-75
2023/02/20 02:36:02;;;;;;;3.92;1.45;;;;;;;7.01;100.00;100609.16;4977032;28;20052;-73
2023/02/20 02:38:37;;;;;;;7.97;1.42;;;;;;;6.69;100.00;100612.94;4984752;28;20074;-74
2023/02/20 02:41:45;;;;;;;1.75;1.27;;;;;;;6.79;100.00;100613.09;4985019;28;20105;-74
2023/02/20 02:44:29;;;;;;;4.10;0.85;;;;;;;6.68;100.00;100624.22;4968454;28;20062;-74
2023/02/20 02:47:01;;;;;;;;;;;;;;;6.76;100.00;100617.41;4982471;28;20046;-74
2023/02/20 02:49:49;;;;;;;1.35;0.60;;;;;;;6.54;100.00;100621.34;4977196;28;19940;-73
2023/02/20 02:52:37;;;;;;;4.85;0.77;;;;;;;5.65;100.00;100550.84;4978931;28;20046;-74
2023/02/20 02:55:04;;;;;;;2.45;1.38;;;;;;;5.52;100.00;100509.78;4988910;28;20074;-73
2023/02/20 02:57:29;;;;;;;7.22;1.30;;;;;;;6.20;100.00;100655.38;5004716;28;20128;-74
2023/02/20 03:00:09;;;;;;;1.38;0.80;;;;;;;5.31;100.00;100489.34;5007034;28;20117;-74
2023/02/20 03:02:49;;;;;;;1.88;0.70;;;;;;;5.79;100.00;100618.84;5006041;28;20038;-74
2023/02/20 03:05:19;;;;;;;1.27;0.60;;;;;;;5.82;100.00;100595.47;5006540;28;20053;-73
2023/02/20 03:07:49;;;;;;;4.32;1.50;;;;;;;6.03;100.00;100611.59;5008099;28;20065;-72
2023/02/20 03:10:19;;;;;;;2.42;1.38;;;;;;;5.76;100.00;100623.97;5001855;28;20050;-72
2023/02/20 03:12:49;;;;;;;2.80;0.85;;;;;;;6.07;100.00;100655.13;4997736;28;20175;-74
2023/02/20 03:15:34;;;;;;;2.28;1.50;;;;;;;5.90;100.00;100651.22;4978114;28;20058;-74
2023/02/20 03:18:34;;;;;;;2.08;0.80;;;;;;;5.75;100.00;100675.16;4977153;28;20030;-74
2023/02/20 03:21:08;;;;;;;4.88;1.20;;;;;;;4.94;100.00;100546.59;4987042;28;20510;-74
2023/02/20 03:23:39;;;;;;;1.90;0.82;;;;;;;5.22;100.00;100594.97;4979400;28;20034;-76
2023/02/20 03:26:09;;;;;;;18.15;2.00;;;;;;;5.07;100.00;100572.03;4986018;28;20050;-73
2023/02/20 03:28:45;;;;;;;2.88;1.27;;;;;;;4.88;100.00;100553.34;4986889;28;20499;-75
2023/02/20 03:31:13;;;;;;;3.05;1.35;;;;;;;5.82;100.00;100707.44;4982621;28;20402;-74
2023/02/20 03:44:57;;;;;;;2.75;1.52;;;;;;;5.41;100.00;100733.34;4986968;28;20140;-75
2023/02/20 03:47:26;;;;;;;6.00;2.35;;;;;;;4.86;100.00;100642.56;4999597;28;20034;-75
2023/02/20 03:52:38;;;;;;;7.55;1.85;;;;;;;5.57;100.00;100758.91;4981660;28;20065;-73
2023/02/20 03:55:03;;;;;;;6.82;2.30;;;;;;;4.98;100.00;100694.03;4991191;28;20054;-74
2023/02/20 03:57:34;;;;;;;5.13;2.25;;;;;;;5.60;100.00;100795.44;4987447;28;20050;-74
2023/02/20 04:00:06;;;;;;;7.95;2.22;;;;;;;5.35;100.00;100793.00;4989209;28;20218;-75
2023/02/20 04:02:41;;;;;;;4.93;2.05;;;;;;;5.24;100.00;100797.91;4986466;28;20113;-73
2023/02/20 04:05:15;;;;;;;7.75;2.35;;;;;;;5.22;100.00;100831.69;5005103;28;20045;-75
2023/02/20 04:08:13;;;;;;;5.88;3.05;;;;;;;5.05;100.00;100801.72;5005015;28;20135;-74
2023/02/20 04:10:46;;;;;;;7.82;2.55;;;;;;;5.18;100.00;100815.97;4997611;28;20049;-76
2023/02/20 04:13:13;;;;;;;4.78;2.15;;;;;;;5.17;100.00;100859.28;5000908;28;20053;-76
2023/02/20 04:15:40;;;;;;;9.75;2.75;;;;;;;5.09;100.00;100837.38;4997519;28;20054;-77
2023/02/20 04:18:12;;;;;;;2.92;1.83;;;;;;;4.62;100.00;100761.47;4983166;28;20156;-74
2023/02/20 04:20:38;;;;;;;12.68;2.55;;;;;;;5.03;100.00;100837.19;4982790;28;20050;-75
2023/02/20 04:23:13;;;;;;;6.22;2.65;;;;;;;5.14;100.00;100864.41;4986065;28;20700;-75
2023/02/20 04:25:59;;;;;;;6.72;2.60;;;;;;;5.05;100.00;100843.31;4980591;28;20073;-73
2023/02/20 04:28:25;;;;;;;9.25;2.70;;;;;;;4.50;100.00;100737.72;4983133;28;20458;-75
2023/02/20 04:30:51;;;;;;;9.88;2.42;;;;;;;5.11;100.00;100879.94;4983102;28;20046;-76
2023/02/20 04:33:18;;;;;;;10.15;3.08;;;;;;;4.96;100.00;100849.13;4984473;28;20508;-75
2023/02/20 04:35:43;;;;;;;3.17;1.98;;;;;;;4.79;100.00;100859.03;4984889;28;20475;-74
2023/02/20 04:38:09;;;;;;;6.68;2.97;;;;;;;5.02;100.00;100888.31;4979718;28;20134;-75
2023/02/20 04:40:35;;;;;;;6.85;2.30;;;;;;;3.79;100.00;100769.25;4980496;28;20050;-75
2023/02/20 04:43:01;;;;;;;5.70;1.92;;;;;;;4.33;100.00;100857.59;4980955;28;21245;-74
2023/02/20 04:45:26;;;;;;;8.73;3.17;;;;;;;3.59;100.00;100759.09;4980802;28;20073;-74
2023/02/20 04:47:52;;;;;;;7.10;3.50;;;;;;;3.81;100.00;100797.00;4974142;28;20667;-75
2023/02/20 04:50:28;;;;;;;6.55;3.08;;;;;;;4.74;100.00;100903.91;4942908;29;20491;-73
2023/02/20 04:52:55;;;;;;;7.38;3.20;;;;;;;4.70;100.00;100871.72;4952000;28;20050;-74
2023/02/20 04:55:20;;;;;;;5.80;3.17;;;;;;;4.19;100.00;100853.63;4956163;28;20178;-74
2023/02/20 04:57:47;;;;;;;7.60;3.03;;;;;;;4.03;100.00;100800.34;4956703;28;20519;-75
2023/02/20 05:00:14;;;;;;;5.40;2.83;;;;;;;3.64;100.00;100785.19;4944795;28;20554;-75
2023/02/20 05:02:40;;;;;;;5.93;3.13;;;;;;;4.63;100.00;100903.56;4962682;28;20043;-75
2023/02/20 05:05:13;;;;;;;36.22;3.90;;;;;;;4.75;100.00;100916.06;4957660;28;20151;-74
2023/02/20 05:07:39;;;;;;;11.27;3.45;;;;;;;4.44;100.00;100853.59;4964370;28;20118;-73
2023/02/20 05:10:05;;;;;;;6.28;2.60;;;;;;;4.91;100.00;100928.72;4964227;28;20145;-75
2023/02/20 05:12:30;;;;;;;5.57;3.35;;;;;;;4.19;100.00;100838.06;4963200;28;20058;-76
2023/02/20 05:14:56;;;;;;;6.93;2.83;;;;;;;4.10;100.00;100814.41;4957649;28;20046;-74
2023/02/20 05:17:21;;;;;;;8.63;2.65;;;;;;;4.58;100.00;100916.41;4960988;28;20038;-76
2023/02/20 05:19:47;;;;;;;4.63;2.83;;;;;;;3.84;100.00;100787.56;4960242;28;20071;-76
2023/02/20 05:22:18;;;;;;;20.00;4.13;;;;;;;4.28;100.00;100846.16;4958281;28;20069;-75
2023/02/20 05:24:46;;;;;;;5.05;3.13;;;;;;;4.73;100.00;100949.84;4959814;28;20504;-76
2023/02/20 05:27:13;;;;;;;7.68;3.20;;;;;;;4.59;100.00;100949.38;4955308;28;20051;-74
2023/02/20 05:29:47;;;;;;;4.75;2.60;;;;;;;4.28;100.00;100936.19;4955600;28;20058;-74
2023/02/20 05:32:14;;;;;;;9.85;3.63;;;;;;;3.89;100.00;100882.09;4961524;28;20062;-75
2023/02/20 05:34:40;;;;;;;5.32;3.20;;;;;;;3.91;100.00;100839.75;4965190;28;20058;-74
2023/02/20 05:37:05;;;;;;;11.02;2.92;;;;;;;3.66;100.00;100819.00;4965971;28;20046;-74
2023/02/20 05:39:31;;;;;;;7.68;3.20;;;;;;;4.60;100.00;100981.44;4963657;28;20049;-75
2023/02/20 05:41:56;;;;;;;6.57;2.85;;;;;;;4.28;100.00;100972.56;4969140;28;20043;-76
2023/02/20 05:44:22;;;;;;;5.05;3.17;;;;;;;4.16;100.00;100960.91;4965121;28;20054;-75
2023/02/20 05:46:47;;;;;;;6.05;3.05;;;;;;;4.46;100.00;100980.09;4966964;28;20113;-75
2023/02/20 05:49:13;;;;;;;9.82;3.40;;;;;;;3.51;100.00;100830.59;4986954;28;20089;-75
2023/02/20 05:51:38;;;;;;;8.07;2.85;;;;;;;4.32;100.00;101013.41;4995698;28;20058;-74
2023/02/20 05:54:04;;;;;;;6.18;3.92;;;;;;;4.22;100.00;100994.91;4982467;28;21759;-75
2023/02/20 05:56:31;;;;;;;5.72;3.15;;;;;;;3.35;100.00;100854.22;4978384;28;20108;-74
2023/02/20 05:58:57;;;;;;;11.95;3.63;;;;;;;4.37;100.00;101028.31;5006146;28;20073;-74
2023/02/20 06:01:26;;;;;;;12.70;3.70;;;;;;;3.38;100.00;100890.66;4999624;28;21200;-77
2023/02/20 06:03:52;;;;;;;6.28;3.15;;;;;;;3.20;100.00;100914.19;5004457;28;20431;-76
2023/02/20 06:06:18;;;;;;;6.75;3.67;;;;;;;3.29;100.00;100934.41;5006916;28;20054;-74
2023/02/20 06:08:43;;;;;;;9.48;3.35;;;;;;;3.93;100.00;101032.81;5007907;28;20038;-76
2023/02/20 06:11:10;;;;;;;7.30;4.97;;;;;;;2.62;100.00;100875.63;5002575;28;20057;-75
2023/02/20 06:13:39;;;;;;;5.40;2.80;;;;;;;3.84;100.00;101067.91;5006436;28;20054;-75
2023/02/20 06:16:05;;;;;;;4.80;2.78;;;;;;;3.27;100.00;100942.09;5001347;28;20561;-76
2023/02/20 06:18:30;;;;;;;7.82;3.47;;;;;;;3.63;100.00;101078.34;5001245;28;20053;-75
2023/02/20 06:20:56;;;;;;;9.82;3.72;;;;;;;3.91;100.00;101063.03;5001057;28;20542;-75
2023/02/20 06:23:21;;;;;;;10.30;4.63;;;;;;;3.78;100.00;101082.44;4980507;28;20035;-74
2023/02/20 06:25:47;;;;;;;6.32;3.22;;;;;;;3.91;100.00;101076.00;4985378;28;20065;-74
2023/02/20 06:28:12;;;;;;;6.28;3.17;;;;;;;2.66;100.00;100903.44;4987336;28;20062;-75
2023/02/20 06:30:38;;;;;;;8.68;4.63;;;;;;;3.64;100.00;101088.81;4981390;28;20154;-75
2023/02/20 06:33:03;;;;;;;7.38;3.10;;;;;;;3.49;100.00;101028.50;4970869;28;20061;-75
2023/02/20 06:35:29;;;;;;;7.05;3.17;;;;;;;3.88;100.00;101103.53;4979447;28;20042;-76
2023/02/20 06:37:54;;;;;;;10.77;3.20;;;;;;;3.92;100.00;101108.03;4974741;28;20491;-76
2023/02/20 06:40:20;;;;;;;9.25;3.25;;;;;;;3.95;100.00;101106.41;4984314;28;20054;-75
2023/02/20 06:42:45;;;;;;;6.28;3.40;;;;;;;4.02;100.00;101113.63;4979016;28;20362;-76
2023/02/20 06:45:11;;;;;;;9.13;4.00;;;;;;;4.11;100.00;101117.41;4982971;28;20112;-75
2023/02/20 06:47:36;;;;;;;8.05;3.25;;;;;;;4.12;100.00;101113.97;4979629;28;20034;-74
2023/02/20 06:50:03;;;;;;;8.38;3.05;;;;;;;4.02;100.00;101124.00;4970161;28;20125;-73
2023/02/20 06:52:28;;;;;;;29.35;5.32;;;;;;;3.50;100.00;101020.81;4973791;28;20046;-75
2023/02/20 06:54:54;;;;;;;5.63;3.15;;;;;;;4.03;100.00;101098.94;4981157;28;20145;-77
2023/02/20 06:57:19;;;;;;;8.32;5.07;;;;;;;3.49;100.00;101031.09;4990162;28;20065;-77
2023/02/20 06:59:46;;;;;;;6.63;3.60;;;;;;;3.91;100.00;101129.63;4975032;28;20093;-76
2023/02/20 07:02:13;;;;;;;5.60;3.22;;;;;;;4.03;100.00;101137.91;4986849;28;20065;-75
2023/02/20 07:04:39;;;;;;;9.32;5.70;;;;;;;2.16;100.00;100786.66;4978431;28;20054;-74
2023/02/20 07:07:04;;;;;;;8.98;4.88;;;;;;;3.04;100.00;100971.44;4984746;28;20077;-75
2023/02/20 07:09:30;;;;;;;11.38;4.90;;;;;;;3.77;100.00;101117.00;4985540;28;20527;-76
2023/02/20 07:11:56;;;;;;;11.63;4.35;;;;;;;3.59;100.00;101087.75;4990655;28;20033;-75
2023/02/20 07:14:22;;;;;;;10.10;4.63;;;;;;;4.18;100.00;101159.22;5008624;28;20037;-74
2023/02/20 07:16:48;;;;;;;11.98;4.88;;;;;;;3.26;100.00;101019.88;5010181;28;20065;-74
2023/02/20 07:19:13;;;;;;;10.25;5.10;;;;;;;3.65;100.00;101074.97;4993889;28;20134;-76
2023/02/20 07:21:39;;;;;;;11.93;3.97;;;;;;;3.37;100.00;101040.22;4987710;28;20034;-76
2023/02/20 07:24:05;;;;;;;8.15;3.17;;;;;;;3.34;100.00;101021.91;4995021;28;20494;-74
2023/02/20 07:26:30;;;;;;;6.43;3.35;;;;;;;3.97;100.00;101161.91;4985908;28;20042;-75
2023/02/20 07:28:57;;;;;;;11.05;3.00;;;;;;;3.03;100.00;100991.31;4988333;28;20049;-75
2023/02/20 07:31:23;;;;;;;21.13;4.97;;;;;;;3.34;100.00;101059.94;4987608;28;20410;-76
2023/02/20 07:33:49;;;;;;;8.10;3.85;;;;;;;4.26;100.00;101156.94;4987008;28;20054;-79
2023/02/20 07:36:15;;;;;;;9.02;4.57;;;;;;;3.42;100.00;101018.72;4985649;28;20046;-79
2023/02/20 07:38:42;;;;;;;10.52;5.05;;;;;;;4.39;100.00;101159.16;4977058;28;20049;-78
2023/02/20 07:41:09;;;;;;;8.85;4.03;;;;;;;4.17;100.00;101128.91;4985029;28;20648;-77
2023/02/20 07:43:34;;;;;;;11.55;3.38;;;;;;;4.38;100.00;101180.78;4981583;28;20055;-77
2023/02/20 07:46:00;;;;;;;10.85;3.72;;;;;;;4.47;100.00;101187.13;4987394;28;20122;-77
2023/02/20 07:48:26;;;;;;;14.88;4.75;;;;;;;4.68;100.00;101181.84;4988150;28;20523;-77
2023/02/20 07:50:51;;;;;;;9.43;4.50;;;;;;;4.72;100.00;101182.00;4988147;28;20756;-77
2023/02/20 07:53:20;;;;;;;8.55;3.72;;;;;;;4.63;100.00;101177.34;4986006;28;20034;-77
2023/02/20 07:55:46;;;;;;;11.02;4.10;;;;;;;4.21;100.00;101114.31;4982875;28;20042;-76
2023/02/20 07:58:11;;;;;;;11.93;4.20;;;;;;;4.73;100.00;101182.88;4999202;28;20439;-76
2023/02/20 08:00:37;;;;;;;6.78;3.08;;;;;;;4.35;100.00;101084.53;5007064;28;20120;-76
2023/02/20 08:03:03;;;;;;;25.67;4.85;;;;;;;4.23;100.00;101026.94;5005118;28;20069;-76
2023/02/20 08:05:29;;;;;;;8.40;4.18;;;;;;;4.19;100.00;101023.38;4984889;28;20035;-75
2023/02/20 08:07:55;;;;;;;16.50;5.70;;;;;;;4.90;100.00;101170.50;4989807;28;20127;-78
2023/02/20 08:10:24;;;;;;;10.70;5.05;;;;;;;4.74;100.00;101055.56;4987444;28;20100;-77
2023/02/20 08:12:50;;;;;;;8.27;3.58;;;;;;;4.42;100.00;101050.16;4977778;28;20070;-78
2023/02/20 08:15:21;;;;;;;6.22;3.47;;;;;;;4.73;100.00;101111.00;4992637;28;20060;-77
2023/02/20 08:17:46;;;;;;;8.25;4.45;;;;;;;4.48;100.00;101074.59;5006068;28;20032;-76
2023/02/20 08:20:14;;;;;;;7.20;5.53;;;;;;;4.55;100.00;101073.97;4983764;28;20477;-78
2023/02/20 08:22:40;;;;;;;15.45;5.30;;;;;;;4.53;100.00;101080.81;4987607;28;20554;-76
2023/02/20 08:25:05;;;;;;;11.52;4.68;;;;;;;5.03;100.00;101151.88;4990672;28;20180;-72
2023/02/20 08:27:32;;;;;;;9.52;4.30;;;;;;;5.66;100.00;101251.16;5002631;28;20379;-73
2023/02/20 08:29:58;;;;;;;19.25;4.88;;;;;;;5.70;100.00;101255.66;5005270;28;20499;-73
2023/02/20 08:32:24;;;;;;;20.10;4.57;;;;;;;5.50;100.00;101260.22;5006403;28;20029;-72
2023/02/20 08:34:49;;;;;;;6.80;4.10;;;;;;;5.46;100.00;101267.84;5006739;28;20057;-74
2023/02/20 08:37:15;;;;;;;5.93;3.38;;;;;;;5.55;100.00;101278.59;5001532;28;20469;-75
2023/02/20 08:39:40;;;;;;;7.35;4.13;;;;;;;5.37;100.00;101263.22;4995315;28;20137;-74
2023/02/20 08:42:06;;;;;;;12.45;4.63;;;;;;;4.54;100.00;101121.56;4982505;28;20076;-76
2023/02/20 08:44:31;;;;;;;9.88;4.40;;;;;;;5.23;100.00;101275.72;4986096;28;20137;-75
2023/02/20 08:46:57;;;;;;;9.20;5.38;;;;;;;4.65;100.00;101162.69;4985296;28;20538;-73
2023/02/20 08:49:22;;;;;;;11.52;5.53;;;;;;;3.76;100.00;101011.41;4993009;28;20058;-73
2023/02/20 08:51:52;;;;;;;9.52;4.00;;;;;;;5.01;100.00;101249.78;4980893;28;20406;-72
2023/02/20 08:54:18;;;;;;;25.73;4.28;;;;;;;4.92;100.00;101246.88;4986352;28;20038;-74
2023/02/20 08:56:43;;;;;;;10.05;3.60;;;;;;;4.25;100.00;101123.13;4980490;28;20045;-75
2023/02/20 08:59:09;;;;;;;7.93;4.93;;;;;;;4.67;100.00;101156.69;5002916;28;20042;-74
2023/02/20 09:01:34;;;;;;;14.40;6.40;;;;;;;4.78;100.00;101190.03;5008268;28;20069;-74
2023/02/20 09:04:01;;;;;;;8.27;4.57;;;;;;;4.79;100.00;101152.78;4988728;28;20543;-73
2023/02/20 09:06:27;;;;;;;8.10;4.50;;;;;;;5.47;100.00;101256.59;4979915;28;20111;-75
2023/02/20 09:08:53;;;;;;;7.18;4.30;;;;;;;5.60;100.00;101264.00;4986072;28;20126;-75
2023/02/20 09:11:20;;;;;;;9.77;4.40;;;;;;;5.56;100.00;101279.47;4979802;28;20057;-75
2023/02/20 09:13:48;;;;;;;17.60;4.78;;;;;;;5.60;100.00;101297.84;5000891;28;20157;-73
2023/02/20 09:16:16;;;;;;;14.07;5.63;;;;;;;5.41;100.00;101295.44;5001745;28;20053;-74
2023/02/20 09:18:43;;;;;;;9.07;4.40;;;;;;;5.47;100.00;101301.72;4999906;28;20112;-75
2023/02/20 09:21:10;;;;;;;12.52;5.07;;;;;;;4.76;100.00;101147.50;5003036;28;20114;-75
2023/02/20 09:23:36;;;;;;;5.88;3.45;;;;;;;5.22;100.00;101174.19;4996698;28;20041;-73
2023/02/20 09:26:03;;;;;;;11.63;5.93;;;;;;;5.23;100.00;101259.25;4998963;28;20065;-74
2023/02/20 09:28:28;;;;;;;21.25;5.80;;;;;;;5.52;100.00;101317.50;5002028;28;20132;-74
2023/02/20 09:30:56;;;;;;;7.75;4.75;;;;;;;4.07;100.00;101170.91;5003230;28;20086;-74
2023/02/20 09:33:22;;;;;;;8.88;4.47;;;;;;;4.91;100.00;101226.88;5003110;28;20887;-74
2023/02/20 09:35:51;;;;;;;14.20;4.68;;;;;;;5.59;100.00;101288.25;5004934;28;20165;-74
2023/02/20 09:38:18;;;;;;;12.82;5.35;;;;;;;5.00;100.00;101196.00;5005579;28;20030;-74
2023/02/20 09:40:48;;;;;;;14.48;4.38;;;;;;;5.10;100.00;101194.59;5002257;28;20052;-73
2023/02/20 09:43:14;;;;;;;13.32;5.15;;;;;;;6.13;100.00;101358.72;4999004;28;20042;-74
2023/02/20 09:45:55;;;;;;;21.83;4.30;;;;;;;5.53;100.00;101367.88;5005234;28;20077;-74
2023/02/20 09:48:42;;;;;;;8.63;5.10;;;;;;;6.05;100.00;101348.88;5003735;28;20120;-75
2023/02/20 09:51:15;;;;;;;15.25;7.82;;;;;;;5.64;100.00;101247.66;5001151;28;20051;-73
2023/02/20 09:53:47;;;;;;;11.65;5.75;;;;;;;5.48;100.00;101208.94;5002653;28;20049;-74
2023/02/20 09:56:17;;;;;;;7.93;4.43;;;;;;;5.19;100.00;101246.94;5003924;28;20148;-73
2023/02/20 09:58:57;;;;;;;7.22;4.65;;;;;;;6.27;100.00;101363.50;5003450;28;20053;-75
2023/02/20 10:01:23;;;;;;;13.48;4.97;;;;;;;6.38;100.00;101363.84;4996290;28;20107;-74
2023/02/20 10:03:56;;;;;;;7.82;4.28;;;;;;;5.61;100.00;101335.19;4990013;28;20050;-74
2023/02/20 10:06:26;;;;;;;20.83;5.53;;;;;;;5.27;100.00;101211.69;4980412;28;20054;-73
2023/02/20 10:08:53;;;;;;;10.25;4.65;;;;;;;6.36;100.00;101319.47;4989308;28;20516;-74
2023/02/20 10:11:53;;;;;;;13.40;4.80;;;;;;;6.58;100.00;101364.47;4982010;28;20051;-73
2023/02/20 10:14:22;;;;;;;8.85;5.53;;;;;;;6.89;100.00;101372.41;4994148;28;20107;-73
2023/02/20 10:17:16;;;;;;;9.65;4.18;;;;;;;7.11;100.00;101378.28;5009391;28;20376;-72
2023/02/20 10:19:42;;;;;;;5.82;3.75;;;;;;;7.31;100.00;101378.88;5002497;28;20057;-74
2023/02/20 10:22:24;;;;;;;10.98;5.10;;;;;;;6.20;100.00;101375.41;5000827;28;20049;-73
2023/02/20 10:25:02;;;;;;;12.68;6.38;;;;;;;7.07;100.00;101372.09;5002294;28;20469;-72
2023/02/20 10:27:38;;;;;;;8.85;4.93;;;;;;;6.69;100.00;101301.38;5001928;28;20077;-72
2023/02/20 10:30:05;;;;;;;7.82;4.72;;;;;;;7.03;100.00;101351.97;5003378;28;20040;-73
2023/02/20 10:33:00;;;;;;;9.73;4.38;;;;;;;6.94;100.00;101369.94;5008194;28;20401;-73
2023/02/20 10:35:52;;;;;;;8.30;4.25;;;;;;;6.60;100.00;101326.28;4965606;28;20085;-74
2023/02/20 10:38:23;;;;;;;17.35;4.88;;;;;;;6.77;100.00;101343.38;4992291;28;20049;-74
2023/02/20 10:41:18;;;;;;;8.27;4.65;;;;;;;7.15;100.00;101367.97;5011799;28;20499;-74
2023/02/20 10:43:57;;;;;;;8.80;5.22;;;;;;;7.11;100.00;101363.50;5010151;28;20053;-74
2023/02/20 10:46:39;;;;;;;7.38;4.38;;;;;;;6.70;100.00;101308.38;5004482;28;20581;-75
2023/02/20 10:49:12;;;;;;;7.70;5.03;;;;;;;7.02;100.00;101336.25;4989745;28;20058;-74
2023/02/20 10:51:43;;;;;;;11.18;7.03;;;;;;;6.77;100.00;101293.81;4990486;28;20478;-73
2023/02/20 10:54:37;;;;;;;12.38;6.10;;;;;;;5.73;100.00;101346.00;5002745;28;20133;-73
2023/02/20 10:57:14;;;;;;;11.60;5.05;;;;;;;5.54;100.00;101308.03;5012264;28;20081;-73
2023/02/20 11:00:15;;;;;;;6.93;5.18;;;;;;;6.30;100.00;101338.41;5001572;28;20129;-73
2023/02/20 11:02:47;;;;;;;24.55;5.68;;;;;;;6.64;100.00;101292.53;4961216;28;20486;-75
2023/02/20 11:05:18;;;;;;;10.60;5.00;;;;;;;6.66;100.00;101282.16;5004640;28;20056;-75
2023/02/20 11:07:43;;;;;;;11.18;6.68;;;;;;;6.21;100.00;101188.72;5008397;28;20064;-74
2023/02/20 11:10:09;;;;;;;12.38;6.25;;;;;;;6.47;100.00;101231.19;5008237;28;20081;-74
2023/02/20 11:12:59;;;;;;;17.38;7.40;;;;;;;6.85;100.00;101305.34;5006637;28;20089;-74
2023/02/20 11:15:29;;;;;;;35.30;6.15;;;;;;;6.93;100.00;101295.09;5003654;28;20256;-74
2023/02/20 11:17:58;;;;;;;10.45;5.15;;;;;;;6.20;100.00;101166.94;5006794;28;20029;-74
2023/02/20 11:20:34;;;;;;;18.75;7.07;;;;;;;7.04;100.00;101306.75;4988451;28;20037;-75
2023/02/20 11:23:00;;;;;;;15.65;8.25;;;;;;;6.78;100.00;101216.44;4987127;28;20086;-73
2023/02/20 11:25:30;;;;;;;9.68;5.25;;;;;;;7.44;100.00;101292.19;4985343;28;20038;-73
2023/02/20 11:27:59;;;;;;;14.00;7.60;;;;;;;6.98;100.00;101267.44;4978138;28;20559;-73
2023/02/20 11:30:33;;;;;;;12.55;7.15;;;;;;;7.29;98.28;101297.00;4989848;28;20057;-75
2023/02/20 11:33:10;;;;;;;12.45;6.53;;;;;;;7.98;94.35;101293.59;5004914;28;20040;-73
2023/02/20 11:35:42;;;;;;;15.68;6.10;;;;;;;6.91;94.64;101156.81;5009093;28;20038;-74
2023/02/20 11:38:22;;;;;;;11.35;5.65;;;;;;;7.05;93.54;101290.28;5003577;28;20089;-74
2023/02/20 11:40:55;;;;;;;16.45;8.63;;;;;;;7.52;98.13;101292.44;5004849;28;20885;-74
2023/02/20 11:43:39;;;;;;;11.32;7.47;;;;;;;6.41;94.97;101059.81;4995878;28;20232;-75
2023/02/20 11:46:16;;;;;;;13.63;7.90;;;;;;;7.13;91.41;101139.09;4981198;28;20149;-75
2023/02/20 11:49:06;;;;;;;17.15;7.72;;;;;;;8.10;87.72;101290.38;4972437;28;20058;-76